sensor_id;sensor_type;location;lat;lon;timestamp;P1;durP1;ratioP1;P2;durP2;ratioP2
1471;SDS011;963;42.644;23.336;2022-09-27T00:01:31;9.13;;;8.20;;
1471;SDS011;963;42.644;23.336;2022-09-27T00:03:56;8.90;;;8.07;;
1471;SDS011;963;42.644;23.336;2022-09-27T00:06:25;8.50;;;7.60;;
1471;SDS011;963;42.644;23.336;2022-09-27T00:08:53;9.50;;;8.27;;
1471;SDS011;963;42.644;23.336;2022-09-27T00:11:26;10.57;;;9.40;;
1471;SDS011;963;42.644;23.336;2022-09-27T00:13:59;9.60;;;8.47;;
1471;SDS011;963;42.644;23.336;2022-09-27T00:16:27;8.63;;;7.67;;
1471;SDS011;963;42.644;23.336;2022-09-27T00:18:58;10.73;;;8.20;;
1471;SDS011;963;42.644;23.336;2022-09-27T00:21:24;10.20;;;7.63;;
1471;SDS011;963;42.644;23.336;2022-09-27T00:23:50;7.23;;;6.53;;
1471;SDS011;963;42.644;23.336;2022-09-27T00:26:15;10.83;;;8.00;;
1471;SDS011;963;42.644;23.336;2022-09-27T00:28:41;8.43;;;7.53;;
1471;SDS011;963;42.644;23.336;2022-09-27T00:31:13;10.00;;;8.60;;
1471;SDS011;963;42.644;23.336;2022-09-27T00:33:44;8.53;;;7.73;;
1471;SDS011;963;42.644;23.336;2022-09-27T00:36:11;10.57;;;7.63;;
1471;SDS011;963;42.644;23.336;2022-09-27T00:38:38;10.30;;;8.23;;
1471;SDS011;963;42.644;23.336;2022-09-27T00:41:04;9.90;;;7.90;;
1471;SDS011;963;42.644;23.336;2022-09-27T00:43:40;12.33;;;8.67;;
1471;SDS011;963;42.644;23.336;2022-09-27T00:46:08;9.10;;;7.63;;
1471;SDS011;963;42.644;23.336;2022-09-27T00:48:38;10.93;;;7.70;;
1471;SDS011;963;42.644;23.336;2022-09-27T00:51:03;9.33;;;7.87;;
1471;SDS011;963;42.644;23.336;2022-09-27T00:53:32;9.13;;;7.97;;
1471;SDS011;963;42.644;23.336;2022-09-27T00:56:11;8.60;;;7.60;;
1471;SDS011;963;42.644;23.336;2022-09-27T00:58:41;8.23;;;7.37;;
1471;SDS011;963;42.644;23.336;2022-09-27T01:01:12;10.47;;;8.13;;
1471;SDS011;963;42.644;23.336;2022-09-27T01:06:15;8.73;;;7.80;;
1471;SDS011;963;42.644;23.336;2022-09-27T01:08:44;9.23;;;7.80;;
1471;SDS011;963;42.644;23.336;2022-09-27T01:13:51;11.00;;;8.87;;
1471;SDS011;963;42.644;23.336;2022-09-27T01:17:14;10.53;;;8.20;;
1471;SDS011;963;42.644;23.336;2022-09-27T01:21:55;10.70;;;8.30;;
1471;SDS011;963;42.644;23.336;2022-09-27T01:30:24;10.27;;;8.30;;
1471;SDS011;963;42.644;23.336;2022-09-27T01:38:14;9.77;;;8.77;;
1471;SDS011;963;42.644;23.336;2022-09-27T01:40:53;11.43;;;9.43;;
1471;SDS011;963;42.644;23.336;2022-09-27T01:43:36;11.10;;;9.13;;
1471;SDS011;963;42.644;23.336;2022-09-27T01:46:17;9.37;;;8.43;;
1471;SDS011;963;42.644;23.336;2022-09-27T01:48:48;9.80;;;8.17;;
1471;SDS011;963;42.644;23.336;2022-09-27T01:51:19;15.33;;;9.20;;
1471;SDS011;963;42.644;23.336;2022-09-27T01:53:52;9.30;;;8.37;;
1471;SDS011;963;42.644;23.336;2022-09-27T01:56:23;9.63;;;8.50;;
1471;SDS011;963;42.644;23.336;2022-09-27T01:59:19;9.80;;;8.63;;
1471;SDS011;963;42.644;23.336;2022-09-27T02:01:47;9.90;;;8.60;;
1471;SDS011;963;42.644;23.336;2022-09-27T02:04:23;9.90;;;8.57;;
1471;SDS011;963;42.644;23.336;2022-09-27T02:06:53;9.70;;;8.60;;
1471;SDS011;963;42.644;23.336;2022-09-27T02:09:25;9.60;;;8.67;;
1471;SDS011;963;42.644;23.336;2022-09-27T02:12:01;10.70;;;7.83;;
1471;SDS011;963;42.644;23.336;2022-09-27T02:14:37;9.53;;;8.63;;
1471;SDS011;963;42.644;23.336;2022-09-27T02:17:43;10.10;;;7.93;;
1471;SDS011;963;42.644;23.336;2022-09-27T02:20:03;11.20;;;9.00;;
1471;SDS011;963;42.644;23.336;2022-09-27T02:22:43;9.70;;;8.77;;
1471;SDS011;963;42.644;23.336;2022-09-27T02:30:28;11.60;;;8.67;;
1471;SDS011;963;42.644;23.336;2022-09-27T02:32:54;9.43;;;8.33;;
1471;SDS011;963;42.644;23.336;2022-09-27T02:35:32;10.03;;;8.93;;
1471;SDS011;963;42.644;23.336;2022-09-27T02:37:59;10.83;;;8.97;;
1471;SDS011;963;42.644;23.336;2022-09-27T02:40:29;10.17;;;9.00;;
1471;SDS011;963;42.644;23.336;2022-09-27T02:42:57;11.40;;;9.40;;
1471;SDS011;963;42.644;23.336;2022-09-27T02:45:23;13.60;;;9.67;;
1471;SDS011;963;42.644;23.336;2022-09-27T02:58:36;9.83;;;8.60;;
1471;SDS011;963;42.644;23.336;2022-09-27T03:03:51;10.87;;;8.17;;
1471;SDS011;963;42.644;23.336;2022-09-27T03:06:22;9.90;;;8.63;;
1471;SDS011;963;42.644;23.336;2022-09-27T03:08:49;8.57;;;7.63;;
1471;SDS011;963;42.644;23.336;2022-09-27T03:11:15;9.47;;;7.93;;
1471;SDS011;963;42.644;23.336;2022-09-27T03:13:41;9.00;;;8.00;;
1471;SDS011;963;42.644;23.336;2022-09-27T03:16:08;9.47;;;8.57;;
1471;SDS011;963;42.644;23.336;2022-09-27T03:18:33;10.73;;;9.10;;
1471;SDS011;963;42.644;23.336;2022-09-27T03:20:59;15.50;;;14.00;;
1471;SDS011;963;42.644;23.336;2022-09-27T03:23:24;8.80;;;7.90;;
1471;SDS011;963;42.644;23.336;2022-09-27T03:25:50;10.87;;;8.33;;
1471;SDS011;963;42.644;23.336;2022-09-27T03:28:15;9.70;;;8.70;;
1471;SDS011;963;42.644;23.336;2022-09-27T03:30:41;11.80;;;8.87;;
1471;SDS011;963;42.644;23.336;2022-09-27T03:33:08;9.27;;;8.37;;
1471;SDS011;963;42.644;23.336;2022-09-27T03:35:34;9.40;;;8.60;;
1471;SDS011;963;42.644;23.336;2022-09-27T03:37:59;9.77;;;8.77;;
1471;SDS011;963;42.644;23.336;2022-09-27T03:40:25;9.67;;;8.70;;
1471;SDS011;963;42.644;23.336;2022-09-27T03:42:50;9.57;;;8.53;;
1471;SDS011;963;42.644;23.336;2022-09-27T03:45:16;9.47;;;8.23;;
1471;SDS011;963;42.644;23.336;2022-09-27T03:47:42;9.27;;;8.20;;
1471;SDS011;963;42.644;23.336;2022-09-27T03:50:08;10.83;;;9.30;;
1471;SDS011;963;42.644;23.336;2022-09-27T03:52:35;9.87;;;8.87;;
1471;SDS011;963;42.644;23.336;2022-09-27T03:55:00;13.60;;;10.00;;
1471;SDS011;963;42.644;23.336;2022-09-27T03:57:26;11.50;;;10.27;;
1471;SDS011;963;42.644;23.336;2022-09-27T03:59:51;14.70;;;9.47;;
1471;SDS011;963;42.644;23.336;2022-09-27T04:02:17;12.83;;;11.20;;
1471;SDS011;963;42.644;23.336;2022-09-27T04:04:42;13.00;;;10.73;;
1471;SDS011;963;42.644;23.336;2022-09-27T04:07:08;10.93;;;9.93;;
1471;SDS011;963;42.644;23.336;2022-09-27T04:09:34;12.57;;;11.27;;
1471;SDS011;963;42.644;23.336;2022-09-27T04:12:01;13.47;;;11.90;;
1471;SDS011;963;42.644;23.336;2022-09-27T04:14:27;13.37;;;11.97;;
1471;SDS011;963;42.644;23.336;2022-09-27T04:16:52;14.30;;;12.90;;
1471;SDS011;963;42.644;23.336;2022-09-27T04:19:18;14.60;;;12.97;;
1471;SDS011;963;42.644;23.336;2022-09-27T04:21:43;13.67;;;12.27;;
1471;SDS011;963;42.644;23.336;2022-09-27T04:24:09;13.23;;;11.90;;
1471;SDS011;963;42.644;23.336;2022-09-27T04:26:35;16.60;;;14.87;;
1471;SDS011;963;42.644;23.336;2022-09-27T04:29:01;16.47;;;13.60;;
1471;SDS011;963;42.644;23.336;2022-09-27T04:31:27;15.40;;;12.47;;
1471;SDS011;963;42.644;23.336;2022-09-27T04:33:53;14.20;;;12.70;;
1471;SDS011;963;42.644;23.336;2022-09-27T04:36:20;15.03;;;13.47;;
1471;SDS011;963;42.644;23.336;2022-09-27T04:38:57;15.10;;;13.60;;
1471;SDS011;963;42.644;23.336;2022-09-27T04:41:24;14.70;;;13.00;;
1471;SDS011;963;42.644;23.336;2022-09-27T04:43:52;14.50;;;13.00;;
1471;SDS011;963;42.644;23.336;2022-09-27T04:46:21;17.23;;;14.17;;
1471;SDS011;963;42.644;23.336;2022-09-27T04:48:47;15.17;;;13.67;;
1471;SDS011;963;42.644;23.336;2022-09-27T04:51:13;18.83;;;13.03;;
1471;SDS011;963;42.644;23.336;2022-09-27T04:53:42;14.63;;;12.80;;
1471;SDS011;963;42.644;23.336;2022-09-27T04:56:09;17.90;;;14.80;;
1471;SDS011;963;42.644;23.336;2022-09-27T04:58:35;14.43;;;13.00;;
1471;SDS011;963;42.644;23.336;2022-09-27T05:01:00;13.97;;;12.20;;
1471;SDS011;963;42.644;23.336;2022-09-27T05:03:28;14.90;;;13.30;;
1471;SDS011;963;42.644;23.336;2022-09-27T05:05:54;16.80;;;13.80;;
1471;SDS011;963;42.644;23.336;2022-09-27T05:08:19;16.90;;;13.30;;
1471;SDS011;963;42.644;23.336;2022-09-27T05:10:45;16.40;;;14.30;;
1471;SDS011;963;42.644;23.336;2022-09-27T05:13:11;17.03;;;14.50;;
1471;SDS011;963;42.644;23.336;2022-09-27T05:15:37;14.93;;;13.37;;
1471;SDS011;963;42.644;23.336;2022-09-27T05:18:04;15.67;;;14.07;;
1471;SDS011;963;42.644;23.336;2022-09-27T05:20:30;15.97;;;14.37;;
1471;SDS011;963;42.644;23.336;2022-09-27T05:22:56;16.47;;;14.83;;
1471;SDS011;963;42.644;23.336;2022-09-27T05:25:22;14.53;;;13.03;;
1471;SDS011;963;42.644;23.336;2022-09-27T05:27:48;16.27;;;14.23;;
1471;SDS011;963;42.644;23.336;2022-09-27T05:30:14;15.53;;;13.90;;
1471;SDS011;963;42.644;23.336;2022-09-27T05:32:43;17.60;;;14.60;;
1471;SDS011;963;42.644;23.336;2022-09-27T05:35:12;17.67;;;15.20;;
1471;SDS011;963;42.644;23.336;2022-09-27T05:37:38;15.70;;;14.10;;
1471;SDS011;963;42.644;23.336;2022-09-27T05:40:05;18.77;;;16.73;;
1471;SDS011;963;42.644;23.336;2022-09-27T05:42:31;23.57;;;16.50;;
1471;SDS011;963;42.644;23.336;2022-09-27T05:44:56;16.17;;;14.10;;
1471;SDS011;963;42.644;23.336;2022-09-27T05:47:21;15.60;;;13.27;;
1471;SDS011;963;42.644;23.336;2022-09-27T05:49:47;15.93;;;14.20;;
1471;SDS011;963;42.644;23.336;2022-09-27T05:52:12;14.97;;;13.47;;
1471;SDS011;963;42.644;23.336;2022-09-27T05:54:38;16.43;;;14.73;;
1471;SDS011;963;42.644;23.336;2022-09-27T05:57:03;17.03;;;14.27;;
1471;SDS011;963;42.644;23.336;2022-09-27T05:59:30;17.73;;;14.80;;
1471;SDS011;963;42.644;23.336;2022-09-27T06:01:55;16.23;;;14.50;;
1471;SDS011;963;42.644;23.336;2022-09-27T06:04:21;19.37;;;15.50;;
1471;SDS011;963;42.644;23.336;2022-09-27T06:06:46;24.17;;;15.20;;
1471;SDS011;963;42.644;23.336;2022-09-27T06:09:13;16.50;;;14.13;;
1471;SDS011;963;42.644;23.336;2022-09-27T06:11:40;18.00;;;13.30;;
1471;SDS011;963;42.644;23.336;2022-09-27T06:14:09;15.77;;;14.07;;
1471;SDS011;963;42.644;23.336;2022-09-27T06:16:36;17.70;;;15.43;;
1471;SDS011;963;42.644;23.336;2022-09-27T06:19:01;19.70;;;15.30;;
1471;SDS011;963;42.644;23.336;2022-09-27T06:21:28;17.10;;;14.53;;
1471;SDS011;963;42.644;23.336;2022-09-27T06:23:55;19.43;;;15.20;;
1471;SDS011;963;42.644;23.336;2022-09-27T06:26:21;16.57;;;14.77;;
1471;SDS011;963;42.644;23.336;2022-09-27T06:28:46;15.10;;;13.50;;
1471;SDS011;963;42.644;23.336;2022-09-27T06:31:12;15.93;;;13.70;;
1471;SDS011;963;42.644;23.336;2022-09-27T06:33:38;20.90;;;15.73;;
1471;SDS011;963;42.644;23.336;2022-09-27T06:36:04;19.40;;;15.10;;
1471;SDS011;963;42.644;23.336;2022-09-27T06:38:31;21.70;;;17.60;;
1471;SDS011;963;42.644;23.336;2022-09-27T06:40:59;22.77;;;16.93;;
1471;SDS011;963;42.644;23.336;2022-09-27T06:43:25;18.37;;;16.47;;
1471;SDS011;963;42.644;23.336;2022-09-27T06:45:51;19.13;;;17.00;;
1471;SDS011;963;42.644;23.336;2022-09-27T06:48:17;18.30;;;16.40;;
1471;SDS011;963;42.644;23.336;2022-09-27T06:50:44;17.30;;;15.50;;
1471;SDS011;963;42.644;23.336;2022-09-27T06:53:13;17.77;;;14.57;;
1471;SDS011;963;42.644;23.336;2022-09-27T06:55:39;18.00;;;16.20;;
1471;SDS011;963;42.644;23.336;2022-09-27T06:58:05;21.33;;;18.67;;
1471;SDS011;963;42.644;23.336;2022-09-27T07:00:50;18.43;;;16.50;;
1471;SDS011;963;42.644;23.336;2022-09-27T07:03:17;18.13;;;16.23;;
1471;SDS011;963;42.644;23.336;2022-09-27T07:05:53;19.30;;;14.00;;
1471;SDS011;963;42.644;23.336;2022-09-27T07:08:23;17.60;;;14.60;;
1471;SDS011;963;42.644;23.336;2022-09-27T07:10:52;16.70;;;15.00;;
1471;SDS011;963;42.644;23.336;2022-09-27T07:13:19;15.70;;;14.00;;
1471;SDS011;963;42.644;23.336;2022-09-27T07:15:45;16.27;;;14.53;;
1471;SDS011;963;42.644;23.336;2022-09-27T07:18:10;16.07;;;13.93;;
1471;SDS011;963;42.644;23.336;2022-09-27T07:20:35;15.30;;;13.67;;
1471;SDS011;963;42.644;23.336;2022-09-27T07:23:02;20.20;;;18.10;;
1471;SDS011;963;42.644;23.336;2022-09-27T07:25:31;16.17;;;14.47;;
1471;SDS011;963;42.644;23.336;2022-09-27T07:28:00;16.40;;;13.80;;
1471;SDS011;963;42.644;23.336;2022-09-27T07:30:31;20.50;;;16.37;;
1471;SDS011;963;42.644;23.336;2022-09-27T07:32:57;17.10;;;15.33;;
1471;SDS011;963;42.644;23.336;2022-09-27T07:35:24;18.10;;;16.30;;
1471;SDS011;963;42.644;23.336;2022-09-27T07:37:49;23.00;;;16.70;;
1471;SDS011;963;42.644;23.336;2022-09-27T07:40:15;18.80;;;16.27;;
1471;SDS011;963;42.644;23.336;2022-09-27T07:42:41;16.20;;;14.53;;
1471;SDS011;963;42.644;23.336;2022-09-27T07:45:06;16.47;;;14.77;;
1471;SDS011;963;42.644;23.336;2022-09-27T07:47:33;15.70;;;14.10;;
1471;SDS011;963;42.644;23.336;2022-09-27T07:50:00;15.73;;;14.00;;
1471;SDS011;963;42.644;23.336;2022-09-27T07:52:25;16.40;;;14.57;;
1471;SDS011;963;42.644;23.336;2022-09-27T07:54:51;17.37;;;15.43;;
1471;SDS011;963;42.644;23.336;2022-09-27T07:57:16;17.13;;;15.07;;
1471;SDS011;963;42.644;23.336;2022-09-27T07:59:46;17.20;;;15.47;;
1471;SDS011;963;42.644;23.336;2022-09-27T08:02:15;16.97;;;15.10;;
1471;SDS011;963;42.644;23.336;2022-09-27T08:04:42;19.40;;;17.23;;
1471;SDS011;963;42.644;23.336;2022-09-27T08:07:08;21.33;;;16.30;;
1471;SDS011;963;42.644;23.336;2022-09-27T08:09:34;20.20;;;17.40;;
1471;SDS011;963;42.644;23.336;2022-09-27T08:12:00;17.30;;;15.43;;
1471;SDS011;963;42.644;23.336;2022-09-27T08:14:25;18.37;;;16.27;;
1471;SDS011;963;42.644;23.336;2022-09-27T08:16:51;21.03;;;18.40;;
1471;SDS011;963;42.644;23.336;2022-09-27T08:19:16;23.30;;;18.07;;
1471;SDS011;963;42.644;23.336;2022-09-27T08:21:43;23.27;;;18.87;;
1471;SDS011;963;42.644;23.336;2022-09-27T08:24:08;23.87;;;19.03;;
1471;SDS011;963;42.644;23.336;2022-09-27T08:26:35;20.57;;;18.40;;
1471;SDS011;963;42.644;23.336;2022-09-27T08:29:00;19.63;;;17.50;;
1471;SDS011;963;42.644;23.336;2022-09-27T08:31:25;19.20;;;17.20;;
1471;SDS011;963;42.644;23.336;2022-09-27T08:33:51;21.83;;;19.53;;
1471;SDS011;963;42.644;23.336;2022-09-27T08:36:17;19.00;;;17.07;;
1471;SDS011;963;42.644;23.336;2022-09-27T08:38:46;19.30;;;17.27;;
1471;SDS011;963;42.644;23.336;2022-09-27T08:44:18;22.77;;;20.37;;
1471;SDS011;963;42.644;23.336;2022-09-27T08:46:57;23.53;;;18.90;;
1471;SDS011;963;42.644;23.336;2022-09-27T08:52:18;20.73;;;18.70;;
1471;SDS011;963;42.644;23.336;2022-09-27T08:54:47;22.93;;;19.63;;
1471;SDS011;963;42.644;23.336;2022-09-27T08:57:14;21.13;;;17.40;;
1471;SDS011;963;42.644;23.336;2022-09-27T08:59:49;19.20;;;17.30;;
1471;SDS011;963;42.644;23.336;2022-09-27T09:02:29;21.23;;;18.20;;
1471;SDS011;963;42.644;23.336;2022-09-27T09:04:57;23.30;;;18.07;;
1471;SDS011;963;42.644;23.336;2022-09-27T09:10:02;21.63;;;18.73;;
1471;SDS011;963;42.644;23.336;2022-09-27T09:13:14;20.77;;;17.17;;
1471;SDS011;963;42.644;23.336;2022-09-27T09:15:56;21.10;;;18.90;;
1471;SDS011;963;42.644;23.336;2022-09-27T09:30:18;20.47;;;18.33;;
1471;SDS011;963;42.644;23.336;2022-09-27T09:38:54;22.40;;;15.33;;
1471;SDS011;963;42.644;23.336;2022-09-27T09:41:31;16.80;;;15.07;;
1471;SDS011;963;42.644;23.336;2022-09-27T09:46:48;17.33;;;15.53;;
1471;SDS011;963;42.644;23.336;2022-09-27T09:49:21;20.57;;;16.43;;
1471;SDS011;963;42.644;23.336;2022-09-27T09:51:58;18.40;;;16.43;;
1471;SDS011;963;42.644;23.336;2022-09-27T09:57:28;19.23;;;15.27;;
1471;SDS011;963;42.644;23.336;2022-09-27T10:00:21;18.07;;;16.23;;
1471;SDS011;963;42.644;23.336;2022-09-27T10:02:46;18.40;;;16.50;;
1471;SDS011;963;42.644;23.336;2022-09-27T10:05:14;18.40;;;14.53;;
1471;SDS011;963;42.644;23.336;2022-09-27T10:07:48;15.20;;;13.60;;
1471;SDS011;963;42.644;23.336;2022-09-27T10:10:16;14.87;;;13.37;;
1471;SDS011;963;42.644;23.336;2022-09-27T10:12:43;14.57;;;13.17;;
1471;SDS011;963;42.644;23.336;2022-09-27T10:15:13;13.80;;;12.30;;
1471;SDS011;963;42.644;23.336;2022-09-27T10:17:44;17.93;;;14.23;;
1471;SDS011;963;42.644;23.336;2022-09-27T10:20:23;14.70;;;13.20;;
1471;SDS011;963;42.644;23.336;2022-09-27T10:22:55;14.77;;;13.27;;
1471;SDS011;963;42.644;23.336;2022-09-27T10:25:25;15.13;;;13.53;;
1471;SDS011;963;42.644;23.336;2022-09-27T10:28:25;14.70;;;13.07;;
1471;SDS011;963;42.644;23.336;2022-09-27T10:30:58;13.47;;;12.07;;
1471;SDS011;963;42.644;23.336;2022-09-27T10:33:25;16.73;;;13.33;;
1471;SDS011;963;42.644;23.336;2022-09-27T10:35:52;17.73;;;12.80;;
1471;SDS011;963;42.644;23.336;2022-09-27T10:40:44;14.57;;;13.10;;
1471;SDS011;963;42.644;23.336;2022-09-27T10:48:32;16.93;;;12.00;;
1471;SDS011;963;42.644;23.336;2022-09-27T10:50:59;13.97;;;11.83;;
1471;SDS011;963;42.644;23.336;2022-09-27T10:53:28;13.53;;;10.70;;
1471;SDS011;963;42.644;23.336;2022-09-27T10:55:55;13.67;;;12.27;;
1471;SDS011;963;42.644;23.336;2022-09-27T11:01:09;13.30;;;11.97;;
1471;SDS011;963;42.644;23.336;2022-09-27T11:03:44;17.53;;;11.90;;
1471;SDS011;963;42.644;23.336;2022-09-27T11:08:47;13.80;;;11.77;;
1471;SDS011;963;42.644;23.336;2022-09-27T11:14:02;10.67;;;9.50;;
1471;SDS011;963;42.644;23.336;2022-09-27T11:19:23;13.10;;;11.80;;
1471;SDS011;963;42.644;23.336;2022-09-27T11:22:57;14.07;;;11.27;;
1471;SDS011;963;42.644;23.336;2022-09-27T11:28:14;11.07;;;9.57;;
1471;SDS011;963;42.644;23.336;2022-09-27T11:30:46;9.80;;;8.40;;
1471;SDS011;963;42.644;23.336;2022-09-27T11:47:24;9.53;;;7.80;;
1471;SDS011;963;42.644;23.336;2022-09-27T11:50:25;13.80;;;7.90;;
1471;SDS011;963;42.644;23.336;2022-09-27T11:53:30;7.43;;;6.70;;
1471;SDS011;963;42.644;23.336;2022-09-27T11:56:30;7.63;;;6.87;;
1471;SDS011;963;42.644;23.336;2022-09-27T12:07:30;7.30;;;5.70;;
1471;SDS011;963;42.644;23.336;2022-09-27T12:09:59;6.40;;;5.20;;
1471;SDS011;963;42.644;23.336;2022-09-27T12:12:30;7.60;;;5.10;;
1471;SDS011;963;42.644;23.336;2022-09-27T12:15:03;6.70;;;5.30;;
1471;SDS011;963;42.644;23.336;2022-09-27T12:17:38;8.00;;;5.23;;
1471;SDS011;963;42.644;23.336;2022-09-27T12:20:15;5.73;;;4.70;;
1471;SDS011;963;42.644;23.336;2022-09-27T12:22:56;6.53;;;4.83;;
1471;SDS011;963;42.644;23.336;2022-09-27T12:25:26;5.90;;;5.30;;
1471;SDS011;963;42.644;23.336;2022-09-27T12:28:08;8.50;;;4.80;;
1471;SDS011;963;42.644;23.336;2022-09-27T12:30:36;5.37;;;4.87;;
1471;SDS011;963;42.644;23.336;2022-09-27T12:33:22;5.63;;;4.30;;
1471;SDS011;963;42.644;23.336;2022-09-27T12:35:53;7.90;;;4.87;;
1471;SDS011;963;42.644;23.336;2022-09-27T12:38:24;7.17;;;4.23;;
1471;SDS011;963;42.644;23.336;2022-09-27T12:40:59;6.60;;;4.93;;
1471;SDS011;963;42.644;23.336;2022-09-27T12:43:26;6.40;;;5.63;;
1471;SDS011;963;42.644;23.336;2022-09-27T12:46:06;5.13;;;4.00;;
1471;SDS011;963;42.644;23.336;2022-09-27T12:51:44;7.60;;;4.77;;
1471;SDS011;963;42.644;23.336;2022-09-27T13:00:04;6.20;;;4.73;;
1471;SDS011;963;42.644;23.336;2022-09-27T13:02:50;4.30;;;3.77;;
1471;SDS011;963;42.644;23.336;2022-09-27T13:11:19;5.17;;;4.20;;
1471;SDS011;963;42.644;23.336;2022-09-27T13:14:09;4.70;;;3.60;;
1471;SDS011;963;42.644;23.336;2022-09-27T13:16:45;8.07;;;4.27;;
1471;SDS011;963;42.644;23.336;2022-09-27T13:22:10;2.80;;;2.60;;
1471;SDS011;963;42.644;23.336;2022-09-27T13:24:53;3.50;;;1.67;;
1471;SDS011;963;42.644;23.336;2022-09-27T13:29:47;5.93;;;1.77;;
1471;SDS011;963;42.644;23.336;2022-09-27T13:32:20;2.97;;;1.80;;
1471;SDS011;963;42.644;23.336;2022-09-27T13:37:44;2.70;;;1.40;;
1471;SDS011;963;42.644;23.336;2022-09-27T13:40:36;1.83;;;1.40;;
1471;SDS011;963;42.644;23.336;2022-09-27T13:51:04;2.67;;;1.10;;
1471;SDS011;963;42.644;23.336;2022-09-27T13:53:38;4.83;;;1.30;;
1471;SDS011;963;42.644;23.336;2022-09-27T13:56:05;2.00;;;1.40;;
1471;SDS011;963;42.644;23.336;2022-09-27T14:01:41;24.03;;;15.13;;
1471;SDS011;963;42.644;23.336;2022-09-27T14:04:31;2.83;;;1.37;;
1471;SDS011;963;42.644;23.336;2022-09-27T14:07:05;2.00;;;1.07;;
1471;SDS011;963;42.644;23.336;2022-09-27T14:09:38;3.27;;;1.40;;
1471;SDS011;963;42.644;23.336;2022-09-27T14:12:11;2.37;;;2.17;;
1471;SDS011;963;42.644;23.336;2022-09-27T14:14:43;2.77;;;1.20;;
1471;SDS011;963;42.644;23.336;2022-09-27T14:17:11;1.87;;;1.27;;
1471;SDS011;963;42.644;23.336;2022-09-27T14:19:37;1.70;;;1.00;;
1471;SDS011;963;42.644;23.336;2022-09-27T14:22:10;2.40;;;1.43;;
1471;SDS011;963;42.644;23.336;2022-09-27T14:29:38;1.57;;;1.20;;
1471;SDS011;963;42.644;23.336;2022-09-27T14:32:27;2.10;;;1.60;;
1471;SDS011;963;42.644;23.336;2022-09-27T14:35:12;2.97;;;1.70;;
1471;SDS011;963;42.644;23.336;2022-09-27T14:37:58;3.33;;;1.80;;
1471;SDS011;963;42.644;23.336;2022-09-27T14:40:25;5.33;;;2.53;;
1471;SDS011;963;42.644;23.336;2022-09-27T14:42:55;3.23;;;1.30;;
1471;SDS011;963;42.644;23.336;2022-09-27T14:45:25;4.20;;;1.80;;
1471;SDS011;963;42.644;23.336;2022-09-27T14:47:55;3.80;;;1.50;;
1471;SDS011;963;42.644;23.336;2022-09-27T14:50:26;6.40;;;1.90;;
1471;SDS011;963;42.644;23.336;2022-09-27T14:52:54;6.43;;;3.00;;
1471;SDS011;963;42.644;23.336;2022-09-27T14:55:25;5.73;;;3.80;;
1471;SDS011;963;42.644;23.336;2022-09-27T14:57:56;6.10;;;3.17;;
1471;SDS011;963;42.644;23.336;2022-09-27T15:00:25;5.80;;;3.90;;
1471;SDS011;963;42.644;23.336;2022-09-27T15:02:56;6.50;;;3.20;;
1471;SDS011;963;42.644;23.336;2022-09-27T15:05:27;10.50;;;4.07;;
1471;SDS011;963;42.644;23.336;2022-09-27T15:07:56;5.50;;;3.30;;
1471;SDS011;963;42.644;23.336;2022-09-27T15:10:25;5.47;;;3.40;;
1471;SDS011;963;42.644;23.336;2022-09-27T15:12:55;8.03;;;3.87;;
1471;SDS011;963;42.644;23.336;2022-09-27T15:15:26;2.67;;;1.60;;
1471;SDS011;963;42.644;23.336;2022-09-27T15:17:56;2.53;;;1.70;;
1471;SDS011;963;42.644;23.336;2022-09-27T15:20:24;3.87;;;1.37;;
1471;SDS011;963;42.644;23.336;2022-09-27T15:22:52;5.60;;;1.70;;
1471;SDS011;963;42.644;23.336;2022-09-27T15:25:38;2.23;;;1.10;;
1471;SDS011;963;42.644;23.336;2022-09-27T15:30:36;3.77;;;1.43;;
1471;SDS011;963;42.644;23.336;2022-09-27T15:33:04;3.73;;;1.57;;
1471;SDS011;963;42.644;23.336;2022-09-27T15:35:32;2.43;;;1.43;;
1471;SDS011;963;42.644;23.336;2022-09-27T15:38:09;3.03;;;1.40;;
1471;SDS011;963;42.644;23.336;2022-09-27T15:43:33;3.50;;;1.50;;
1471;SDS011;963;42.644;23.336;2022-09-27T15:51:38;3.53;;;1.70;;
1471;SDS011;963;42.644;23.336;2022-09-27T15:54:05;4.40;;;1.93;;
1471;SDS011;963;42.644;23.336;2022-09-27T15:56:30;3.67;;;2.10;;
1471;SDS011;963;42.644;23.336;2022-09-27T15:58:56;3.63;;;2.30;;
1471;SDS011;963;42.644;23.336;2022-09-27T16:01:21;3.67;;;1.90;;
1471;SDS011;963;42.644;23.336;2022-09-27T16:03:47;5.47;;;2.63;;
1471;SDS011;963;42.644;23.336;2022-09-27T16:06:13;5.53;;;4.43;;
1471;SDS011;963;42.644;23.336;2022-09-27T16:08:39;50.47;;;41.47;;
1471;SDS011;963;42.644;23.336;2022-09-27T16:11:04;3.23;;;2.60;;
1471;SDS011;963;42.644;23.336;2022-09-27T16:13:30;4.67;;;1.90;;
1471;SDS011;963;42.644;23.336;2022-09-27T16:15:55;5.07;;;1.93;;
1471;SDS011;963;42.644;23.336;2022-09-27T16:18:22;3.63;;;1.70;;
1471;SDS011;963;42.644;23.336;2022-09-27T16:20:47;2.70;;;1.60;;
1471;SDS011;963;42.644;23.336;2022-09-27T16:23:13;2.70;;;1.90;;
1471;SDS011;963;42.644;23.336;2022-09-27T16:25:38;2.30;;;1.50;;
1471;SDS011;963;42.644;23.336;2022-09-27T16:28:04;3.23;;;2.00;;
1471;SDS011;963;42.644;23.336;2022-09-27T16:30:30;4.50;;;2.90;;
1471;SDS011;963;42.644;23.336;2022-09-27T16:32:56;5.23;;;3.00;;
1471;SDS011;963;42.644;23.336;2022-09-27T16:35:23;3.73;;;2.70;;
1471;SDS011;963;42.644;23.336;2022-09-27T16:37:50;7.23;;;3.73;;
1471;SDS011;963;42.644;23.336;2022-09-27T16:40:15;11.43;;;4.50;;
1471;SDS011;963;42.644;23.336;2022-09-27T16:42:46;6.27;;;3.50;;
1471;SDS011;963;42.644;23.336;2022-09-27T16:45:13;5.87;;;3.10;;
1471;SDS011;963;42.644;23.336;2022-09-27T16:47:40;7.53;;;3.07;;
1471;SDS011;963;42.644;23.336;2022-09-27T16:50:07;25.13;;;17.30;;
1471;SDS011;963;42.644;23.336;2022-09-27T16:52:52;6.10;;;4.17;;
1471;SDS011;963;42.644;23.336;2022-09-27T16:55:19;5.33;;;3.00;;
1471;SDS011;963;42.644;23.336;2022-09-27T16:57:48;9.30;;;3.13;;
1471;SDS011;963;42.644;23.336;2022-09-27T17:00:15;8.40;;;5.10;;
1471;SDS011;963;42.644;23.336;2022-09-27T17:02:41;6.67;;;3.67;;
1471;SDS011;963;42.644;23.336;2022-09-27T17:05:10;9.87;;;7.03;;
1471;SDS011;963;42.644;23.336;2022-09-27T17:07:36;6.10;;;3.60;;
1471;SDS011;963;42.644;23.336;2022-09-27T17:10:02;4.10;;;2.80;;
1471;SDS011;963;42.644;23.336;2022-09-27T17:12:27;4.90;;;2.90;;
1471;SDS011;963;42.644;23.336;2022-09-27T17:14:55;4.17;;;2.83;;
1471;SDS011;963;42.644;23.336;2022-09-27T17:17:20;5.47;;;3.30;;
1471;SDS011;963;42.644;23.336;2022-09-27T17:19:45;5.23;;;3.13;;
1471;SDS011;963;42.644;23.336;2022-09-27T17:22:12;3.70;;;2.47;;
1471;SDS011;963;42.644;23.336;2022-09-27T17:24:38;7.80;;;6.10;;
1471;SDS011;963;42.644;23.336;2022-09-27T17:27:03;5.83;;;4.30;;
1471;SDS011;963;42.644;23.336;2022-09-27T17:29:29;4.10;;;2.80;;
1471;SDS011;963;42.644;23.336;2022-09-27T17:31:55;3.70;;;2.87;;
1471;SDS011;963;42.644;23.336;2022-09-27T17:34:20;6.10;;;3.10;;
1471;SDS011;963;42.644;23.336;2022-09-27T17:36:46;5.43;;;3.70;;
1471;SDS011;963;42.644;23.336;2022-09-27T17:39:16;6.13;;;4.17;;
1471;SDS011;963;42.644;23.336;2022-09-27T17:41:45;4.20;;;2.97;;
1471;SDS011;963;42.644;23.336;2022-09-27T17:44:13;6.57;;;3.80;;
1471;SDS011;963;42.644;23.336;2022-09-27T17:46:39;7.17;;;4.40;;
1471;SDS011;963;42.644;23.336;2022-09-27T17:49:05;13.50;;;7.87;;
1471;SDS011;963;42.644;23.336;2022-09-27T17:51:51;71.53;;;57.90;;
1471;SDS011;963;42.644;23.336;2022-09-27T17:54:18;16.30;;;12.40;;
1471;SDS011;963;42.644;23.336;2022-09-27T17:56:45;5.23;;;4.53;;
1471;SDS011;963;42.644;23.336;2022-09-27T17:59:11;6.33;;;4.67;;
1471;SDS011;963;42.644;23.336;2022-09-27T18:01:41;7.50;;;4.50;;